Fullerton Municipal Airport


Codes: KFUL/FUL
Name: Fullerton Municipal Airport
City: Fullerton
Country: United States
Elevation: 96 ft.
Website:
Wikipedia:

Photos at Fullerton Municipal Airport


   Photos courtesy of SpottingLog. You can add your own sightings and photos by signing up for a free trial today.



No photos found.

Weather at Fullerton Municipal Airport


Time (UTC)DescriptionTempratureWindCloud coverageVisibilityPressureHumidity
25-Jun-2024 12:00Clear Sky20°C4 mph, S10%10000m1012hPa81%
25-Jun-2024 15:00Clear Sky21°C4 mph, SW9%10000m1012hPa75%
25-Jun-2024 18:00Clear Sky23°C9 mph, SW8%10000m1013hPa60%
25-Jun-2024 21:00Clear Sky27°C11 mph, SW6%8615m1013hPa42%
26-Jun-2024 00:00Clear Sky26°C13 mph, SW5%10000m1012hPa43%
26-Jun-2024 03:00Clear Sky23°C11 mph, SW1%10000m1013hPa52%
26-Jun-2024 06:00Clear Sky21°C7 mph, SW0%10000m1014hPa63%
26-Jun-2024 09:00Clear Sky21°C7 mph, SW0%10000m1013hPa67%
26-Jun-2024 12:00Clear Sky20°C4 mph, S0%10000m1013hPa67%
26-Jun-2024 15:00Clear Sky21°C4 mph, S0%10000m1014hPa60%
26-Jun-2024 18:00Clear Sky26°C7 mph, SW0%10000m1013hPa42%
26-Jun-2024 21:00Clear Sky27°C11 mph, SW0%10000m1012hPa38%
27-Jun-2024 00:00Clear Sky27°C11 mph, SW0%9890m1011hPa40%
27-Jun-2024 03:00Clear Sky24°C9 mph, SW0%10000m1011hPa50%
27-Jun-2024 06:00Clear Sky22°C7 mph, SW0%10000m1012hPa63%
27-Jun-2024 09:00Clear Sky21°C4 mph, S0%10000m1011hPa65%
27-Jun-2024 12:00Clear Sky21°C7 mph, S0%10000m1009hPa70%
27-Jun-2024 15:00Clear Sky22°C4 mph, S0%10000m1010hPa65%
27-Jun-2024 18:00Clear Sky26°C7 mph, SW0%10000m1009hPa47%
27-Jun-2024 21:00Clear Sky28°C11 mph, SW0%10000m1008hPa42%
28-Jun-2024 00:00Clear Sky27°C11 mph, SW0%10000m1007hPa42%
28-Jun-2024 03:00Clear Sky24°C11 mph, SW0%10000m1007hPa55%
28-Jun-2024 06:00Clear Sky22°C7 mph, S0%10000m1008hPa64%
28-Jun-2024 09:00Clear Sky21°C7 mph, S0%10000m1007hPa70%
28-Jun-2024 12:00Clear Sky20°C7 mph, S1%10000m1007hPa75%
28-Jun-2024 15:00Clear Sky21°C4 mph, S0%10000m1008hPa70%
28-Jun-2024 18:00Clear Sky25°C9 mph, S0%10000m1008hPa50%
28-Jun-2024 21:00Clear Sky27°C11 mph, S0%10000m1008hPa40%
29-Jun-2024 00:00Clear Sky25°C11 mph, S0%10000m1008hPa48%
29-Jun-2024 03:00Clear Sky22°C9 mph, S0%10000m1009hPa64%
29-Jun-2024 06:00Clear Sky20°C9 mph, S0%10000m1010hPa75%
29-Jun-2024 09:00Few Clouds19°C7 mph, SW15%10000m1011hPa78%
29-Jun-2024 12:00Few Clouds19°C4 mph, SW11%10000m1011hPa79%
29-Jun-2024 15:00Clear Sky19°C4 mph, SW0%10000m1011hPa72%
29-Jun-2024 18:00Clear Sky24°C7 mph, SW0%8829m1012hPa51%
29-Jun-2024 21:00Clear Sky27°C11 mph, SW0%8701m1011hPa40%
30-Jun-2024 00:00Clear Sky27°C11 mph, SW0%10000m1010hPa40%
30-Jun-2024 03:00Clear Sky24°C9 mph, SW0%10000m1010hPa49%
30-Jun-2024 06:00Clear Sky21°C7 mph, SW0%10000m1012hPa61%
30-Jun-2024 09:00Clear Sky20°C4 mph, SW0%10000m1011hPa69%